Portada
METAR-TAF:

METAR-TAF

Aeropuertos :

Aeropuerto de Kangiqsualujjuaq

Kangiqsualujjuaq, Quebec, Canadá

latitud: 58-43N, longitud: 065-59W, altitud: 60 m

Observación

El informe se hizo hace 4 horas y 47 minutos, a las 21:00 UTC
Viento 5 kt con dirección variable
Temperatura 17°C
Humedad 48%
Presión 1007 hPa
Visibilidad: 24.1 km
Escasas nubes a una altura de 6200 ft
Cielo nuboso a una altura de 11000 ft
Cielo cubierto a una altura de 13000 ft

METAR: CYLU 162100Z VRB05KT 15SM FEW062 BKN110 OVC130 17/06 A2974 RMK SC2AS4AS2 LAST STFD OBS/NEXT 171200UTC PRESFR SLP075 DENSITY ALT 800FT

Hora: 21:47 (01:47 UTC)


TAF: falta

Observaciones y pronósticos meteorológicos de más de 4000 aeropuertos (mensajes METAR y TAF).

Los puntos amarillos y rojos representan las estaciones disponibles.

Ponga el ratón en el punto deseado para ver el nombre de la estación.

Haga clic para ver las observaciones y los pronósticos meteorológicos.

Para cambiar el mapa : haga clic en los botones verdes con una cruz de color negro para hacer un zoom, en el botón verde con un guión para alejar o en las flechas verdes para mapas adyacentes.


METAR-TAF: